Time;durP1;ratioP1;P1;durP2;ratioP2;P2;SDS_P1;SDS_P2;PMS_P1;PMS_P2;Temp;Humidity;BMP_temperature;BMP_pressure;BME280_temperature;BME280_humidity;BME280_pressure;Samples;Min_cycle;Max_cycle;Signal;HPM_P1;HPM_P2
2022/12/23 00:04:27;;;;;;;47.05;34.00;;;9.60;86.50;;;;;;10944833;32;20080;-73
2022/12/23 00:10:30;;;;;;;60.90;47.25;;;9.70;86.20;;;;;;10947944;32;20019;-73
2022/12/23 00:16:36;;;;;;;65.80;49.58;;;9.70;86.10;;;;;;10947762;32;20046;-73
2022/12/23 00:28:59;;;;;;;48.15;35.63;;;9.80;86.20;;;;;;10869005;32;20077;-73
2022/12/23 00:35:01;;;;;;;54.38;41.10;;;9.70;86.30;;;;;;10868277;32;20341;-73
2022/12/23 00:53:57;;;;;;;35.40;29.00;;;9.60;86.40;;;;;;10864568;32;20054;-74
2022/12/23 00:59:59;;;;;;;39.20;29.87;;;9.40;86.70;;;;;;10867126;32;20102;-74
2022/12/23 01:06:02;;;;;;;31.08;25.95;;;9.40;86.80;;;;;;10850336;32;20054;-73
2022/12/23 01:12:05;;;;;;;29.83;24.23;;;9.30;86.80;;;;;;10863683;32;20031;-74
2022/12/23 01:18:07;;;;;;;45.67;35.15;;;9.20;86.80;;;;;;10867610;32;20020;-73
2022/12/23 01:24:09;;;;;;;45.15;36.78;;;9.40;86.90;;;;;;10863127;32;20058;-74
2022/12/23 01:30:12;;;;;;;38.30;29.12;;;9.50;86.60;;;;;;10928396;32;20053;-73
2022/12/23 01:36:14;;;;;;;59.95;44.45;;;9.40;86.70;;;;;;10931499;32;20053;-74
2022/12/23 01:48:43;;;;;;;30.35;23.05;;;9.40;86.60;;;;;;10944779;32;20096;-74
2022/12/23 01:54:45;;;;;;;29.15;22.08;;;9.30;86.70;;;;;;10944402;32;20054;-74
2022/12/23 02:21:01;;;;;;;31.15;24.55;;;9.30;86.70;;;;;;10943476;32;20062;-74
2022/12/23 02:27:14;;;;;;;43.87;32.25;;;9.30;86.80;;;;;;10864626;32;20066;-74
2022/12/23 02:33:42;;;;;;;26.27;23.33;;;9.30;86.90;;;;;;10864037;32;20016;-74
2022/12/23 02:39:54;;;;;;;31.15;25.70;;;9.50;86.80;;;;;;10863494;32;20035;-74
2022/12/23 02:46:14;;;;;;;40.80;29.67;;;9.50;86.80;;;;;;10863458;32;20043;-73
2022/12/23 02:52:20;;;;;;;30.03;21.80;;;9.20;86.80;;;;;;10863352;32;20012;-74
2022/12/23 02:58:31;;;;;;;31.55;24.17;;;9.10;87.00;;;;;;10864130;32;20051;-74
2022/12/23 03:04:33;;;;;;;26.37;20.20;;;9.20;87.20;;;;;;10926082;32;20046;-73
2022/12/23 03:11:04;;;;;;;31.52;23.50;;;9.20;87.00;;;;;;10928507;32;20389;-73
2022/12/23 03:17:30;;;;;;;29.33;22.17;;;9.20;87.10;;;;;;10923709;32;20038;-73
2022/12/23 03:23:41;;;;;;;29.85;23.12;;;9.20;87.00;;;;;;10941632;32;20397;-73
2022/12/23 03:29:56;;;;;;;31.92;22.65;;;9.20;86.90;;;;;;10937543;32;20341;-73
2022/12/23 03:36:06;;;;;;;38.58;29.00;;;9.00;87.00;;;;;;10944041;32;20042;-73
2022/12/23 03:42:23;;;;;;;28.02;23.77;;;9.00;87.20;;;;;;10949064;32;20050;-73
2022/12/23 03:48:50;;;;;;;23.20;18.02;;;9.00;87.00;;;;;;10950688;32;20019;-73
2022/12/23 03:54:58;;;;;;;34.10;25.75;;;8.80;87.00;;;;;;10948273;32;20019;-73
2022/12/23 04:01:31;;;;;;;20.00;13.93;;;8.70;87.20;;;;;;10934461;32;20058;-73
2022/12/23 04:07:38;;;;;;;19.50;14.27;;;8.70;87.30;;;;;;10934610;32;20027;-73
2022/12/23 04:13:40;;;;;;;31.58;23.65;;;8.80;87.40;;;;;;10948092;32;20073;-73
2022/12/23 04:19:46;;;;;;;26.00;19.58;;;9.00;87.40;;;;;;10921630;32;20030;-73
2022/12/23 04:25:48;;;;;;;25.45;18.98;;;9.30;86.90;;;;;;10947600;32;20332;-73
2022/12/23 04:31:50;;;;;;;30.80;21.75;;;9.20;86.60;;;;;;10947464;32;20031;-74
2022/12/23 04:37:52;;;;;;;34.30;26.37;;;9.00;86.90;;;;;;10942936;32;20031;-73
2022/12/23 04:43:54;;;;;;;18.35;14.93;;;8.90;86.90;;;;;;10933543;32;20019;-73
2022/12/23 04:49:57;;;;;;;26.67;18.33;;;8.70;87.10;;;;;;10942295;32;20019;-73
2022/12/23 04:55:59;;;;;;;23.40;18.40;;;8.80;87.30;;;;;;10932662;32;20022;-74
2022/12/23 05:02:01;;;;;;;18.62;15.18;;;8.80;87.30;;;;;;10946303;32;20015;-73
2022/12/23 05:08:04;;;;;;;23.73;17.85;;;8.80;87.30;;;;;;10946099;32;20405;-73
2022/12/23 05:14:09;;;;;;;40.83;29.73;;;8.80;87.50;;;;;;10945872;32;20038;-73
2022/12/23 05:20:11;;;;;;;30.80;24.15;;;9.30;87.40;;;;;;10963551;32;20042;-73
2022/12/23 05:26:13;;;;;;;30.75;26.08;;;9.40;86.90;;;;;;10980163;32;20015;-73
2022/12/23 05:32:15;;;;;;;44.65;32.03;;;9.50;86.80;;;;;;10982916;32;20384;-73
2022/12/23 05:38:17;;;;;;;38.97;31.65;;;9.50;86.80;;;;;;10982576;32;20049;-73
2022/12/23 05:44:20;;;;;;;33.72;27.50;;;9.70;87.00;;;;;;10982448;32;20393;-76
2022/12/23 05:50:22;;;;;;;28.35;23.08;;;9.80;87.50;;;;;;10982216;32;20393;-75
2022/12/23 05:56:24;;;;;;;35.65;23.48;;;9.90;86.80;;;;;;10977931;32;20018;-76
2022/12/23 06:02:26;;;;;;;22.65;19.08;;;9.80;87.40;;;;;;10981097;32;20023;-76
2022/12/23 06:08:28;;;;;;;21.17;18.02;;;10.10;87.00;;;;;;10981598;32;20027;-75
2022/12/23 06:14:30;;;;;;;23.67;18.30;;;9.80;86.70;;;;;;10963517;32;20152;-75
2022/12/23 06:20:32;;;;;;;22.02;17.98;;;9.80;87.20;;;;;;10979557;32;20087;-75
2022/12/23 06:26:34;;;;;;;25.70;17.90;;;9.60;86.40;;;;;;10980733;32;20019;-75
2022/12/23 06:32:36;;;;;;;24.75;18.83;;;9.30;87.10;;;;;;10966930;32;20325;-75
2022/12/23 06:38:38;;;;;;;39.65;33.40;;;9.20;87.30;;;;;;10979196;32;20026;-75
2022/12/23 06:44:40;;;;;;;24.15;16.75;;;9.10;87.30;;;;;;10965772;32;20391;-76
2022/12/23 06:50:43;;;;;;;42.42;30.27;;;8.90;87.30;;;;;;10979945;32;20019;-75
2022/12/23 06:56:45;;;;;;;32.35;26.45;;;8.80;87.70;;;;;;10963685;32;20023;-75
2022/12/23 07:03:13;;;;;;;33.45;24.45;;;9.10;87.30;;;;;;10950482;32;20054;-75
2022/12/23 07:09:15;;;;;;;33.55;26.83;;;9.20;87.60;;;;;;10905371;32;20450;-75
2022/12/23 07:15:17;;;;;;;25.75;21.45;;;9.20;87.10;;;;;;10918132;32;20031;-75
2022/12/23 07:21:19;;;;;;;26.23;19.30;;;9.20;87.40;;;;;;10941264;32;20027;-75
2022/12/23 07:27:21;;;;;;;27.62;18.92;;;9.20;87.30;;;;;;10937610;32;20073;-75
2022/12/23 07:33:23;;;;;;;33.78;27.67;;;9.10;87.40;;;;;;10941530;32;20040;-75
2022/12/23 07:39:25;;;;;;;28.62;21.30;;;9.10;87.70;;;;;;10940074;32;20412;-75
2022/12/23 07:45:29;;;;;;;28.62;22.60;;;9.30;87.30;;;;;;10941386;32;20423;-75
2022/12/23 07:51:31;;;;;;;40.08;27.58;;;9.20;87.30;;;;;;10941221;32;20436;-75
2022/12/23 07:57:37;;;;;;;32.25;24.60;;;9.10;87.50;;;;;;10939391;32;20018;-75
2022/12/23 08:03:41;;;;;;;34.58;25.52;;;9.00;87.50;;;;;;10940627;32;20081;-75
2022/12/23 08:09:43;;;;;;;25.95;18.90;;;9.00;87.70;;;;;;10938437;32;20054;-75
2022/12/23 08:15:45;;;;;;;41.40;29.85;;;9.10;87.70;;;;;;10938794;32;20329;-75
2022/12/23 08:21:47;;;;;;;54.88;45.85;;;9.10;87.60;;;;;;10938694;27;20022;-75
2022/12/23 08:27:50;;;;;;;54.00;38.15;;;9.10;87.60;;;;;;10905158;32;20039;-75
2022/12/23 08:33:55;;;;;;;56.53;40.80;;;9.10;87.60;;;;;;10909374;32;20382;-75
2022/12/23 08:39:57;;;;;;;32.72;27.65;;;9.20;87.50;;;;;;10909494;32;20058;-75
2022/12/23 08:45:59;;;;;;;35.85;27.95;;;9.30;87.60;;;;;;10909287;32;20015;-75
2022/12/23 08:52:02;;;;;;;28.33;21.10;;;9.30;87.40;;;;;;10909395;32;20043;-75
2022/12/23 08:58:05;;;;;;;41.63;26.60;;;9.40;87.60;;;;;;10904739;32;20326;-75
2022/12/23 09:04:07;;;;;;;28.83;24.37;;;9.40;87.60;;;;;;10907049;32;20031;-75
2022/12/23 09:10:09;;;;;;;37.50;28.15;;;9.40;87.40;;;;;;10908275;32;20010;-74
2022/12/23 09:16:12;;;;;;;50.63;33.67;;;9.40;87.10;;;;;;10904252;32;20020;-74
2022/12/23 09:22:14;;;;;;;46.00;32.63;;;9.30;86.90;;;;;;10907427;32;20019;-75
2022/12/23 09:28:16;;;;;;;48.70;36.05;;;9.50;86.90;;;;;;10914766;32;20295;-74
2022/12/23 09:34:18;;;;;;;34.42;25.98;;;9.50;87.10;;;;;;10943098;32;20026;-74
2022/12/23 09:40:21;;;;;;;43.67;30.08;;;9.60;86.90;;;;;;10944632;32;20077;-74
2022/12/23 09:46:26;;;;;;;47.15;32.15;;;9.70;87.10;;;;;;10940888;32;20015;-74
2022/12/23 09:52:45;;;;;;;44.90;29.52;;;9.70;86.60;;;;;;10943777;32;20049;-74
2022/12/23 09:58:54;;;;;;;69.70;44.63;;;9.70;86.70;;;;;;10942754;32;20018;-75
2022/12/23 10:04:56;;;;;;;52.38;36.58;;;9.80;86.50;;;;;;10944216;32;20019;-75
2022/12/23 10:11:06;;;;;;;45.90;31.83;;;10.00;86.30;;;;;;10940844;32;20408;-75
2022/12/23 10:17:40;;;;;;;55.30;34.55;;;10.20;86.50;;;;;;10939228;32;20035;-75
2022/12/23 10:23:49;;;;;;;54.60;40.03;;;10.30;85.80;;;;;;10942087;32;20035;-75
2022/12/23 10:29:51;;;;;;;56.63;38.20;;;10.30;85.00;;;;;;10940804;32;20565;-75
2022/12/23 10:36:12;;;;;;;57.35;36.97;;;10.40;84.90;;;;;;10940474;32;20423;-75
2022/12/23 10:42:15;;;;;;;49.53;34.97;;;10.50;84.80;;;;;;10940994;32;20027;-75
2022/12/23 10:48:28;;;;;;;37.80;28.52;;;10.70;84.60;;;;;;10942130;32;20397;-75
2022/12/23 10:54:35;;;;;;;34.05;26.85;;;10.80;84.30;;;;;;10940450;32;20054;-75
2022/12/23 11:00:41;;;;;;;38.05;26.25;;;10.80;84.10;;;;;;10942062;32;20031;-75
2022/12/23 11:06:48;;;;;;;36.65;25.58;;;10.80;83.90;;;;;;10928463;32;20329;-75
2022/12/23 11:12:53;;;;;;;32.90;22.70;;;10.70;83.90;;;;;;10941650;32;20069;-75
2022/12/23 11:19:15;;;;;;;37.25;24.83;;;10.70;83.90;;;;;;10941344;32;20019;-75
2022/12/23 11:25:23;;;;;;;31.33;20.42;;;10.90;84.40;;;;;;10941511;32;20042;-75
2022/12/23 11:31:31;;;;;;;32.88;24.63;;;11.10;84.50;;;;;;10941380;32;20037;-75
2022/12/23 11:37:40;;;;;;;31.15;22.45;;;11.20;84.90;;;;;;10941350;32;20038;-75
2022/12/23 11:43:42;;;;;;;28.05;17.05;;;11.20;85.40;;;;;;10927794;32;20011;-75
2022/12/23 11:49:49;;;;;;;25.70;16.85;;;11.70;85.80;;;;;;10923649;32;20348;-76
2022/12/23 11:56:13;;;;;;;26.90;20.10;;;11.90;85.80;;;;;;10940784;32;20051;-75
2022/12/23 12:02:28;;;;;;;36.63;31.58;;;12.10;85.50;;;;;;10946342;32;20352;-75
2022/12/23 12:08:37;;;;;;;25.12;19.75;;;11.90;84.90;;;;;;10947519;32;20317;-75
2022/12/23 12:14:53;;;;;;;19.58;15.25;;;11.80;85.60;;;;;;10947096;32;20007;-75
2022/12/23 12:21:04;;;;;;;26.27;18.60;;;12.20;85.90;;;;;;10946029;32;20043;-75
2022/12/23 12:27:09;;;;;;;33.88;23.00;;;12.30;86.20;;;;;;10944907;32;20417;-75
2022/12/23 12:33:22;;;;;;;19.40;14.75;;;12.30;86.40;;;;;;10947260;32;20372;-75
2022/12/23 12:39:31;;;;;;;25.60;16.98;;;12.10;86.20;;;;;;10946895;32;20015;-75
2022/12/23 12:46:23;;;;;;;14.40;10.55;;;12.00;86.90;;;;;;10933610;32;20023;-75
2022/12/23 12:52:26;;;;;;;40.95;27.45;;;12.20;86.80;;;;;;10930633;32;20027;-75
2022/12/23 12:58:29;;;;;;;24.65;18.98;;;12.30;87.40;;;;;;10946419;32;20019;-75
2022/12/23 13:04:59;;;;;;;28.08;18.17;;;12.20;88.00;;;;;;10946424;32;20042;-75
2022/12/23 13:11:30;;;;;;;29.10;20.58;;;12.30;88.40;;;;;;10945818;32;20054;-75
2022/12/23 13:18:10;;;;;;;30.25;22.98;;;12.40;88.10;;;;;;10945486;32;20042;-75
2022/12/23 13:24:21;;;;;;;28.08;21.48;;;12.40;88.40;;;;;;10916752;32;20031;-75
2022/12/23 13:30:31;;;;;;;26.15;16.12;;;12.60;88.30;;;;;;10942695;32;20019;-75
2022/12/23 13:36:45;;;;;;;18.65;14.85;;;12.70;88.10;;;;;;10927902;32;20022;-75
2022/12/23 13:42:52;;;;;;;19.60;14.90;;;12.60;88.20;;;;;;10945099;32;20423;-75
2022/12/23 13:49:44;;;;;;;27.85;19.15;;;12.30;88.00;;;;;;10930262;32;20030;-75
2022/12/23 13:55:58;;;;;;;26.35;17.35;;;12.00;87.70;;;;;;10944659;32;20019;-75
2022/12/23 14:02:30;;;;;;;18.12;11.60;;;11.80;88.00;;;;;;10944269;32;20045;-75
2022/12/23 14:08:42;;;;;;;22.85;16.65;;;11.70;88.10;;;;;;10925812;32;20065;-75
2022/12/23 14:15:01;;;;;;;21.20;13.80;;;11.70;88.10;;;;;;10930456;32;20085;-75
2022/12/23 14:21:37;;;;;;;24.60;18.12;;;11.50;87.80;;;;;;10943009;32;20050;-75
2022/12/23 14:27:46;;;;;;;24.27;17.75;;;11.50;88.10;;;;;;10930155;32;20032;-75
2022/12/23 14:33:48;;;;;;;27.03;16.97;;;11.50;88.20;;;;;;10942943;32;20042;-75
2022/12/23 14:39:51;;;;;;;16.83;10.50;;;11.50;88.20;;;;;;10942952;32;20142;-75
2022/12/23 14:46:05;;;;;;;24.77;18.50;;;11.50;87.80;;;;;;10929281;32;20045;-75
2022/12/23 14:52:47;;;;;;;21.25;14.38;;;11.40;88.20;;;;;;10929077;32;20019;-75
2022/12/23 14:59:10;;;;;;;36.03;21.37;;;11.60;88.40;;;;;;10926864;32;20022;-75
2022/12/23 15:05:13;;;;;;;31.37;22.30;;;11.90;88.40;;;;;;10926055;32;20369;-73
2022/12/23 15:11:29;;;;;;;26.40;19.15;;;12.20;87.90;;;;;;10937808;32;20045;-73
2022/12/23 15:17:34;;;;;;;25.95;17.62;;;12.30;87.60;;;;;;10928440;32;20047;-73
2022/12/23 15:23:36;;;;;;;29.58;18.87;;;12.20;87.70;;;;;;10927565;32;20039;-73
2022/12/23 15:29:44;;;;;;;21.65;15.30;;;12.20;87.50;;;;;;10941463;32;20041;-72
2022/12/23 15:35:48;;;;;;;20.00;14.87;;;11.70;87.60;;;;;;10948515;32;20054;-72
2022/12/23 15:41:50;;;;;;;24.50;17.62;;;11.50;88.10;;;;;;10951050;32;20115;-72
2022/12/23 15:47:52;;;;;;;35.72;21.17;;;11.60;88.40;;;;;;10948607;32;20054;-72
2022/12/23 15:53:58;;;;;;;31.55;21.77;;;11.80;88.20;;;;;;10949220;32;20023;-72
2022/12/23 16:00:01;;;;;;;23.98;18.73;;;11.90;87.60;;;;;;10944457;32;20023;-73
2022/12/23 16:06:32;;;;;;;31.67;22.02;;;11.90;87.50;;;;;;10947258;32;20050;-72
2022/12/23 16:12:34;;;;;;;42.85;31.75;;;11.90;87.40;;;;;;10948125;32;20317;-72
2022/12/23 16:18:41;;;;;;;30.08;20.92;;;12.00;87.40;;;;;;10947634;32;20046;-72
2022/12/23 16:25:11;;;;;;;26.00;20.02;;;11.90;87.20;;;;;;10925681;27;20031;-72
2022/12/23 16:31:19;;;;;;;45.70;25.00;;;11.90;87.20;;;;;;10902961;32;20019;-72
2022/12/23 16:37:22;;;;;;;28.65;22.02;;;11.90;87.10;;;;;;10896052;32;20039;-72
2022/12/23 16:43:25;;;;;;;30.25;21.77;;;11.90;86.90;;;;;;10908657;32;20027;-72
2022/12/23 16:49:29;;;;;;;29.70;23.33;;;11.80;86.80;;;;;;10907546;32;20053;-72
2022/12/23 16:55:31;;;;;;;31.40;24.27;;;11.60;86.70;;;;;;10907588;32;20081;-72
2022/12/23 17:01:36;;;;;;;36.88;24.63;;;11.60;86.70;;;;;;10908635;32;20024;-72
2022/12/23 17:07:38;;;;;;;42.53;30.37;;;11.50;86.50;;;;;;10932312;32;20026;-72
2022/12/23 17:13:41;;;;;;;36.65;26.65;;;11.50;86.40;;;;;;10931724;32;20038;-72
2022/12/23 17:19:43;;;;;;;29.00;22.45;;;11.40;86.30;;;;;;10945943;32;20023;-72
2022/12/23 17:25:46;;;;;;;31.73;22.25;;;11.30;86.20;;;;;;10928053;32;20073;-72
2022/12/23 17:31:49;;;;;;;32.17;23.87;;;11.20;86.10;;;;;;10929634;32;20045;-72
2022/12/23 17:37:52;;;;;;;33.80;23.62;;;11.30;86.40;;;;;;10945214;32;20050;-72
2022/12/23 17:43:55;;;;;;;27.35;22.08;;;11.30;86.40;;;;;;10956149;32;20046;-72
2022/12/23 17:49:57;;;;;;;26.45;21.12;;;11.30;86.30;;;;;;10944751;32;20050;-72
2022/12/23 17:56:00;;;;;;;22.95;17.73;;;11.30;86.10;;;;;;10942601;32;20437;-72
2022/12/23 18:02:10;;;;;;;27.77;21.37;;;11.40;85.70;;;;;;10944386;32;20077;-72
2022/12/23 18:08:13;;;;;;;28.98;21.77;;;11.50;85.30;;;;;;10940752;32;20031;-72
2022/12/23 18:14:26;;;;;;;36.85;25.70;;;11.70;85.10;;;;;;10943674;32;20049;-72
2022/12/23 18:20:28;;;;;;;33.33;23.35;;;11.60;84.90;;;;;;10926024;32;20216;-72
2022/12/23 18:26:31;;;;;;;35.60;28.33;;;11.70;84.90;;;;;;10929981;32;20401;-72
2022/12/23 18:32:33;;;;;;;35.08;25.98;;;11.90;85.10;;;;;;10943267;32;20019;-72
2022/12/23 18:38:35;;;;;;;45.25;34.38;;;12.00;85.00;;;;;;10925745;32;20053;-72
2022/12/23 18:44:37;;;;;;;31.45;25.50;;;11.80;85.00;;;;;;10942932;32;20011;-72
2022/12/23 18:50:41;;;;;;;38.13;30.05;;;11.80;84.90;;;;;;10929257;32;20023;-72
2022/12/23 18:56:43;;;;;;;44.90;29.40;;;11.50;85.00;;;;;;10938519;32;20019;-72
2022/12/23 19:02:46;;;;;;;33.13;24.77;;;11.60;85.20;;;;;;10939230;32;20031;-72
2022/12/23 19:08:48;;;;;;;40.60;27.62;;;11.50;85.10;;;;;;10939004;32;20023;-72
2022/12/23 19:15:05;;;;;;;59.47;43.33;;;11.30;85.10;;;;;;10937954;32;20045;-72
2022/12/23 19:21:14;;;;;;;40.25;31.25;;;11.20;85.50;;;;;;10941819;32;20023;-72
2022/12/23 19:27:16;;;;;;;49.97;35.90;;;11.30;85.30;;;;;;10926863;32;20027;-72
2022/12/23 19:33:18;;;;;;;37.88;29.58;;;11.30;85.50;;;;;;10941653;32;20019;-72
2022/12/23 19:39:27;;;;;;;39.38;30.15;;;11.30;85.40;;;;;;10940859;32;20031;-72
2022/12/23 19:45:29;;;;;;;46.42;35.38;;;11.20;85.70;;;;;;10938826;32;20053;-72
2022/12/23 19:51:31;;;;;;;36.20;26.75;;;11.30;85.80;;;;;;10941422;32;20471;-72
2022/12/23 19:57:33;;;;;;;34.65;28.35;;;11.20;85.30;;;;;;10941206;32;20042;-72
2022/12/23 20:03:36;;;;;;;37.80;28.48;;;10.90;85.40;;;;;;10914367;32;20337;-72
2022/12/23 20:09:39;;;;;;;29.37;24.10;;;10.90;85.20;;;;;;10924091;32;20045;-72
2022/12/23 20:15:41;;;;;;;29.05;24.30;;;10.90;84.90;;;;;;10940861;32;20306;-72
2022/12/23 20:21:46;;;;;;;37.47;25.95;;;10.80;84.90;;;;;;10931946;32;20053;-72
2022/12/23 20:27:49;;;;;;;28.45;24.05;;;10.50;85.10;;;;;;10947647;32;20022;-72
2022/12/23 20:33:51;;;;;;;31.45;24.35;;;10.60;85.10;;;;;;10933878;32;20035;-72
2022/12/23 20:39:53;;;;;;;34.03;26.67;;;10.50;85.00;;;;;;10943325;32;20027;-72
2022/12/23 20:45:55;;;;;;;30.58;24.75;;;10.40;85.40;;;;;;10916613;32;20030;-72
2022/12/23 20:51:58;;;;;;;38.22;31.08;;;10.50;85.10;;;;;;10942941;32;20026;-72
2022/12/23 20:58:53;;;;;;;49.58;38.05;;;10.70;85.10;;;;;;10946857;32;20041;-72
2022/12/23 21:04:23;;;;;;;32.53;26.35;;;10.80;85.30;;;;;;10946665;32;20041;-72
2022/12/23 21:10:26;;;;;;;32.97;25.98;;;10.70;85.20;;;;;;10933942;32;20042;-72
2022/12/23 21:16:29;;;;;;;41.40;31.08;;;10.70;85.20;;;;;;10942769;32;20023;-72
2022/12/23 21:22:31;;;;;;;40.50;34.70;;;10.50;85.00;;;;;;10931601;32;20397;-72
2022/12/23 21:28:33;;;;;;;37.35;29.33;;;10.60;85.20;;;;;;10945490;32;20041;-72
2022/12/23 21:34:36;;;;;;;32.03;27.98;;;10.60;85.20;;;;;;10945514;32;20045;-72
2022/12/23 21:40:38;;;;;;;35.40;26.60;;;10.40;85.20;;;;;;10919088;32;20060;-72
2022/12/23 21:46:40;;;;;;;34.40;28.30;;;10.40;85.20;;;;;;10945029;32;20053;-72
2022/12/23 21:52:42;;;;;;;34.85;26.17;;;10.40;85.00;;;;;;10944675;32;20081;-72
2022/12/23 21:58:44;;;;;;;30.02;23.42;;;10.30;85.00;;;;;;10944668;32;20027;-72
2022/12/23 22:04:47;;;;;;;27.35;22.70;;;10.20;84.90;;;;;;10930935;32;20340;-72
2022/12/23 22:10:49;;;;;;;29.15;24.77;;;10.20;84.80;;;;;;10931436;32;20042;-72
2022/12/23 22:17:03;;;;;;;39.35;29.23;;;10.20;84.80;;;;;;10943937;32;20031;-72
2022/12/23 22:23:05;;;;;;;24.80;21.40;;;10.10;84.70;;;;;;10943704;32;20046;-72
2022/12/23 22:29:09;;;;;;;36.63;30.37;;;10.10;84.50;;;;;;10941633;32;20026;-72
2022/12/23 22:35:14;;;;;;;37.08;28.42;;;10.00;84.60;;;;;;10943248;32;20019;-72
2022/12/23 22:41:16;;;;;;;31.05;25.65;;;10.00;84.80;;;;;;10942561;32;20053;-72
2022/12/23 22:47:18;;;;;;;31.98;24.60;;;10.00;84.60;;;;;;10942888;32;20015;-72
2022/12/23 22:53:20;;;;;;;27.33;21.98;;;9.90;84.80;;;;;;10942699;32;20337;-72
2022/12/23 22:59:24;;;;;;;34.15;25.70;;;9.90;84.60;;;;;;10942507;32;20059;-72
2022/12/23 23:05:25;;;;;;;34.88;27.35;;;10.00;84.70;;;;;;10924931;32;20039;-72
2022/12/23 23:11:28;;;;;;;39.38;33.60;;;9.90;84.70;;;;;;10942171;32;20020;-72
2022/12/23 23:17:34;;;;;;;33.58;26.23;;;9.70;85.00;;;;;;10942220;32;20026;-72
2022/12/23 23:23:36;;;;;;;41.35;31.98;;;9.80;85.00;;;;;;10928288;32;20027;-72
2022/12/23 23:29:38;;;;;;;32.65;24.50;;;9.90;84.80;;;;;;10941722;32;20022;-72
2022/12/23 23:35:40;;;;;;;50.33;39.75;;;9.90;84.70;;;;;;10940501;32;20045;-72
2022/12/23 23:41:42;;;;;;;36.70;29.15;;;9.90;85.00;;;;;;10941398;32;20054;-72
2022/12/23 23:47:44;;;;;;;45.88;34.63;;;9.90;84.90;;;;;;10928010;32;20065;-72
2022/12/23 23:53:46;;;;;;;40.58;33.88;;;9.80;85.00;;;;;;10944299;32;20023;-72
2022/12/23 23:59:49;;;;;;;38.15;29.70;;;9.80;85.00;;;;;;10948829;32;20027;-72
